sensor_id;sensor_type;location;lat;lon;timestamp;pressure;altitude;pressure_sealevel;temperature;humidity
46583;BME280;32309;48.858;8.252;2023-01-15T00:01:31;98986.22;;;10.14;84.16
46583;BME280;32309;48.858;8.252;2023-01-15T00:03:35;98978.94;;;10.20;83.50
46583;BME280;32309;48.858;8.252;2023-01-15T00:05:36;98983.19;;;10.21;84.03
46583;BME280;32309;48.858;8.252;2023-01-15T00:07:36;98983.91;;;10.23;84.14
46583;BME280;32309;48.858;8.252;2023-01-15T00:09:36;98970.81;;;10.24;83.69
46583;BME280;32309;48.858;8.252;2023-01-15T00:11:37;98975.75;;;10.27;83.57
46583;BME280;32309;48.858;8.252;2023-01-15T00:13:37;98980.13;;;10.27;83.10
46583;BME280;32309;48.858;8.252;2023-01-15T00:15:37;98985.19;;;10.28;83.03
46583;BME280;32309;48.858;8.252;2023-01-15T00:17:38;98984.34;;;10.28;83.41
46583;BME280;32309;48.858;8.252;2023-01-15T00:19:38;98958.44;;;10.28;84.25
46583;BME280;32309;48.858;8.252;2023-01-15T00:21:38;98968.81;;;10.28;83.71
46583;BME280;32309;48.858;8.252;2023-01-15T00:23:38;98967.06;;;10.28;83.53
46583;BME280;32309;48.858;8.252;2023-01-15T00:25:58;98970.34;;;10.30;82.96
46583;BME280;32309;48.858;8.252;2023-01-15T00:28:17;98959.97;;;10.30;83.69
46583;BME280;32309;48.858;8.252;2023-01-15T00:30:17;98960.94;;;10.29;83.51
46583;BME280;32309;48.858;8.252;2023-01-15T00:32:17;98958.34;;;10.29;83.90
46583;BME280;32309;48.858;8.252;2023-01-15T00:34:18;98955.50;;;10.32;83.42
46583;BME280;32309;48.858;8.252;2023-01-15T00:36:18;98945.28;;;10.31;83.76
46583;BME280;32309;48.858;8.252;2023-01-15T00:38:18;98943.63;;;10.30;84.08
46583;BME280;32309;48.858;8.252;2023-01-15T00:40:19;98941.16;;;10.28;83.91
46583;BME280;32309;48.858;8.252;2023-01-15T00:42:19;98932.47;;;10.29;83.34
46583;BME280;32309;48.858;8.252;2023-01-15T00:44:20;98947.03;;;10.30;83.32
46583;BME280;32309;48.858;8.252;2023-01-15T00:46:20;98941.75;;;10.32;82.01
46583;BME280;32309;48.858;8.252;2023-01-15T00:48:21;98946.72;;;10.35;82.22
46583;BME280;32309;48.858;8.252;2023-01-15T00:50:21;98935.28;;;10.38;82.89
46583;BME280;32309;48.858;8.252;2023-01-15T00:52:21;98930.81;;;10.40;82.86
46583;BME280;32309;48.858;8.252;2023-01-15T00:54:21;98938.69;;;10.38;83.18
46583;BME280;32309;48.858;8.252;2023-01-15T00:56:22;98935.41;;;10.36;82.68
46583;BME280;32309;48.858;8.252;2023-01-15T00:58:23;98930.94;;;10.38;82.61
46583;BME280;32309;48.858;8.252;2023-01-15T01:00:23;98915.38;;;10.38;83.32
46583;BME280;32309;48.858;8.252;2023-01-15T01:02:23;98915.50;;;10.37;83.86
46583;BME280;32309;48.858;8.252;2023-01-15T01:04:24;98926.91;;;10.34;83.47
46583;BME280;32309;48.858;8.252;2023-01-15T01:06:24;98923.50;;;10.33;83.74
46583;BME280;32309;48.858;8.252;2023-01-15T01:08:25;98914.06;;;10.32;83.41
46583;BME280;32309;48.858;8.252;2023-01-15T01:10:25;98911.50;;;10.32;84.06
46583;BME280;32309;48.858;8.252;2023-01-15T01:12:26;98899.47;;;10.31;84.07
46583;BME280;32309;48.858;8.252;2023-01-15T01:14:27;98910.09;;;10.28;85.04
46583;BME280;32309;48.858;8.252;2023-01-15T01:16:32;98917.00;;;10.28;84.34
46583;BME280;32309;48.858;8.252;2023-01-15T01:18:34;98908.56;;;10.26;84.74
46583;BME280;32309;48.858;8.252;2023-01-15T01:20:36;98906.66;;;10.28;84.65
46583;BME280;32309;48.858;8.252;2023-01-15T01:22:37;98916.19;;;10.27;84.56
46583;BME280;32309;48.858;8.252;2023-01-15T01:24:37;98915.00;;;10.31;83.73
46583;BME280;32309;48.858;8.252;2023-01-15T01:26:37;98905.50;;;10.32;84.31
46583;BME280;32309;48.858;8.252;2023-01-15T01:28:38;98908.09;;;10.32;84.86
46583;BME280;32309;48.858;8.252;2023-01-15T01:30:39;98908.09;;;10.32;84.26
46583;BME280;32309;48.858;8.252;2023-01-15T01:32:42;98893.38;;;10.32;84.62
46583;BME280;32309;48.858;8.252;2023-01-15T01:34:43;98908.78;;;10.34;84.79
46583;BME280;32309;48.858;8.252;2023-01-15T01:36:43;98900.91;;;10.36;83.88
46583;BME280;32309;48.858;8.252;2023-01-15T01:38:47;98906.94;;;10.36;84.45
46583;BME280;32309;48.858;8.252;2023-01-15T01:40:48;98898.41;;;10.34;84.99
46583;BME280;32309;48.858;8.252;2023-01-15T01:42:49;98916.78;;;10.31;85.73
46583;BME280;32309;48.858;8.252;2023-01-15T01:46:49;98885.47;;;10.34;85.84
46583;BME280;32309;48.858;8.252;2023-01-15T01:48:49;98891.84;;;10.30;86.27
46583;BME280;32309;48.858;8.252;2023-01-15T01:50:53;98884.06;;;10.30;85.27
46583;BME280;32309;48.858;8.252;2023-01-15T01:52:58;98881.47;;;10.30;86.05
46583;BME280;32309;48.858;8.252;2023-01-15T01:55:01;98887.59;;;10.29;85.64
46583;BME280;32309;48.858;8.252;2023-01-15T01:57:03;98877.22;;;10.29;86.55
46583;BME280;32309;48.858;8.252;2023-01-15T01:59:05;98886.78;;;10.28;87.18
46583;BME280;32309;48.858;8.252;2023-01-15T02:01:07;98891.25;;;10.26;87.28
46583;BME280;32309;48.858;8.252;2023-01-15T02:03:07;98874.78;;;10.27;87.16
46583;BME280;32309;48.858;8.252;2023-01-15T02:05:08;98875.97;;;10.23;87.41
46583;BME280;32309;48.858;8.252;2023-01-15T02:07:14;98869.84;;;10.24;87.81
46583;BME280;32309;48.858;8.252;2023-01-15T02:09:15;98873.25;;;10.25;86.68
46583;BME280;32309;48.858;8.252;2023-01-15T02:11:16;98863.34;;;10.30;86.77
46583;BME280;32309;48.858;8.252;2023-01-15T02:13:22;98871.84;;;10.32;86.42
46583;BME280;32309;48.858;8.252;2023-01-15T02:15:36;98876.03;;;10.33;86.53
46583;BME280;32309;48.858;8.252;2023-01-15T02:20:33;98851.00;;;10.33;86.93
46583;BME280;32309;48.858;8.252;2023-01-15T02:22:43;98873.94;;;10.38;86.76
46583;BME280;32309;48.858;8.252;2023-01-15T02:27:41;98853.47;;;10.35;87.57
46583;BME280;32309;48.858;8.252;2023-01-15T02:31:49;98856.97;;;10.34;87.99
46583;BME280;32309;48.858;8.252;2023-01-15T02:33:57;98856.50;;;10.29;89.16
46583;BME280;32309;48.858;8.252;2023-01-15T02:36:02;98853.13;;;10.28;88.82
46583;BME280;32309;48.858;8.252;2023-01-15T02:38:08;98839.59;;;10.25;89.39
46583;BME280;32309;48.858;8.252;2023-01-15T02:40:13;98840.66;;;10.22;88.82
46583;BME280;32309;48.858;8.252;2023-01-15T02:42:15;98843.09;;;10.24;89.36
46583;BME280;32309;48.858;8.252;2023-01-15T02:44:20;98829.34;;;10.23;88.92
46583;BME280;32309;48.858;8.252;2023-01-15T02:46:25;98831.81;;;10.25;89.13
46583;BME280;32309;48.858;8.252;2023-01-15T02:48:30;98817.00;;;10.27;88.43
46583;BME280;32309;48.858;8.252;2023-01-15T02:50:38;98815.22;;;10.27;88.88
46583;BME280;32309;48.858;8.252;2023-01-15T02:52:44;98821.09;;;10.29;88.60
46583;BME280;32309;48.858;8.252;2023-01-15T02:54:50;98816.59;;;10.31;88.30
46583;BME280;32309;48.858;8.252;2023-01-15T02:57:01;98823.22;;;10.36;88.41
46583;BME280;32309;48.858;8.252;2023-01-15T02:59:04;98822.28;;;10.37;88.23
46583;BME280;32309;48.858;8.252;2023-01-15T03:01:12;98822.03;;;10.40;88.20
46583;BME280;32309;48.858;8.252;2023-01-15T03:06:26;98817.44;;;10.43;87.68
46583;BME280;32309;48.858;8.252;2023-01-15T03:08:07;98813.50;;;10.49;87.25
46583;BME280;32309;48.858;8.252;2023-01-15T03:10:17;98798.41;;;10.54;87.10
46583;BME280;32309;48.858;8.252;2023-01-15T03:12:25;98816.19;;;10.59;86.36
46583;BME280;32309;48.858;8.252;2023-01-15T03:15:06;98812.66;;;10.60;86.27
46583;BME280;32309;48.858;8.252;2023-01-15T03:17:14;98810.88;;;10.60;86.03
46583;BME280;32309;48.858;8.252;2023-01-15T03:21:40;98801.47;;;10.59;86.13
46583;BME280;32309;48.858;8.252;2023-01-15T03:23:46;98808.16;;;10.62;86.09
46583;BME280;32309;48.858;8.252;2023-01-15T03:25:51;98812.41;;;10.63;85.66
46583;BME280;32309;48.858;8.252;2023-01-15T03:27:52;98818.53;;;10.62;86.83
46583;BME280;32309;48.858;8.252;2023-01-15T03:30:03;98818.41;;;10.63;86.40
46583;BME280;32309;48.858;8.252;2023-01-15T03:32:06;98840.78;;;10.64;86.30
46583;BME280;32309;48.858;8.252;2023-01-15T03:34:07;98824.66;;;10.61;87.57
46583;BME280;32309;48.858;8.252;2023-01-15T03:36:07;98801.47;;;10.59;87.47
46583;BME280;32309;48.858;8.252;2023-01-15T03:38:08;98834.34;;;10.59;87.76
46583;BME280;32309;48.858;8.252;2023-01-15T03:40:09;98825.16;;;10.55;88.26
46583;BME280;32309;48.858;8.252;2023-01-15T03:44:38;98831.91;;;10.46;89.30
46583;BME280;32309;48.858;8.252;2023-01-15T03:46:56;98823.53;;;10.42;89.54
46583;BME280;32309;48.858;8.252;2023-01-15T03:49:11;98824.59;;;10.40;89.36
46583;BME280;32309;48.858;8.252;2023-01-15T03:51:22;98862.53;;;10.41;88.91
46583;BME280;32309;48.858;8.252;2023-01-15T03:55:55;98875.72;;;10.38;89.85
46583;BME280;32309;48.858;8.252;2023-01-15T04:02:29;98931.50;;;10.30;90.66
46583;BME280;32309;48.858;8.252;2023-01-15T04:04:29;98954.34;;;10.14;91.13
46583;BME280;32309;48.858;8.252;2023-01-15T04:06:32;98958.09;;;9.87;90.16
46583;BME280;32309;48.858;8.252;2023-01-15T04:08:36;98968.16;;;9.56;88.65
46583;BME280;32309;48.858;8.252;2023-01-15T04:12:52;98964.41;;;9.25;88.90
46583;BME280;32309;48.858;8.252;2023-01-15T04:14:53;98955.09;;;9.11;88.60
46583;BME280;32309;48.858;8.252;2023-01-15T04:16:53;98953.53;;;8.84;88.67
46583;BME280;32309;48.858;8.252;2023-01-15T04:18:53;98977.78;;;8.70;89.48
46583;BME280;32309;48.858;8.252;2023-01-15T04:20:54;98979.56;;;8.57;89.54
46583;BME280;32309;48.858;8.252;2023-01-15T04:22:54;98989.59;;;8.48;89.91
46583;BME280;32309;48.858;8.252;2023-01-15T04:24:54;98984.84;;;8.42;90.40
46583;BME280;32309;48.858;8.252;2023-01-15T04:26:55;98977.50;;;8.36;90.54
46583;BME280;32309;48.858;8.252;2023-01-15T04:28:55;98981.25;;;8.32;90.46
46583;BME280;32309;48.858;8.252;2023-01-15T04:30:56;98985.06;;;8.26;91.65
46583;BME280;32309;48.858;8.252;2023-01-15T04:32:56;98993.84;;;8.24;91.70
46583;BME280;32309;48.858;8.252;2023-01-15T04:34:57;98993.13;;;8.22;91.19
46583;BME280;32309;48.858;8.252;2023-01-15T04:36:57;99008.81;;;8.19;91.65
46583;BME280;32309;48.858;8.252;2023-01-15T04:38:57;99010.78;;;8.15;91.30
46583;BME280;32309;48.858;8.252;2023-01-15T04:41:02;99017.59;;;8.16;90.55
46583;BME280;32309;48.858;8.252;2023-01-15T04:43:21;99016.16;;;8.12;91.47
46583;BME280;32309;48.858;8.252;2023-01-15T04:45:42;99016.44;;;8.07;90.88
46583;BME280;32309;48.858;8.252;2023-01-15T04:47:43;99036.47;;;8.04;91.42
46583;BME280;32309;48.858;8.252;2023-01-15T04:49:43;99044.44;;;8.00;92.69
46583;BME280;32309;48.858;8.252;2023-01-15T04:51:43;99035.13;;;7.98;91.61
46583;BME280;32309;48.858;8.252;2023-01-15T04:53:44;99039.38;;;7.99;91.89
46583;BME280;32309;48.858;8.252;2023-01-15T04:55:45;99042.34;;;7.93;91.78
46583;BME280;32309;48.858;8.252;2023-01-15T04:57:48;99067.22;;;7.94;91.81
46583;BME280;32309;48.858;8.252;2023-01-15T04:59:49;99068.88;;;7.95;91.02
46583;BME280;32309;48.858;8.252;2023-01-15T05:01:49;99072.72;;;7.89;91.49
46583;BME280;32309;48.858;8.252;2023-01-15T05:03:50;99073.91;;;7.83;92.60
46583;BME280;32309;48.858;8.252;2023-01-15T05:05:50;99074.84;;;7.82;92.29
46583;BME280;32309;48.858;8.252;2023-01-15T05:07:50;99076.69;;;7.80;91.83
46583;BME280;32309;48.858;8.252;2023-01-15T05:09:51;99081.13;;;7.78;92.53
46583;BME280;32309;48.858;8.252;2023-01-15T05:11:52;99082.34;;;7.73;92.17
46583;BME280;32309;48.858;8.252;2023-01-15T05:13:53;99087.41;;;7.74;91.85
46583;BME280;32309;48.858;8.252;2023-01-15T05:15:53;99085.84;;;7.72;91.78
46583;BME280;32309;48.858;8.252;2023-01-15T05:17:53;99100.72;;;7.68;91.53
46583;BME280;32309;48.858;8.252;2023-01-15T05:19:55;99123.09;;;7.68;91.58
46583;BME280;32309;48.858;8.252;2023-01-15T05:21:55;99119.06;;;7.63;91.24
46583;BME280;32309;48.858;8.252;2023-01-15T05:23:56;99117.59;;;7.59;90.96
46583;BME280;32309;48.858;8.252;2023-01-15T05:25:57;99114.19;;;7.59;91.09
46583;BME280;32309;48.858;8.252;2023-01-15T05:27:57;99120.44;;;7.55;90.92
46583;BME280;32309;48.858;8.252;2023-01-15T05:29:57;99136.94;;;7.52;91.16
46583;BME280;32309;48.858;8.252;2023-01-15T05:31:57;99134.47;;;7.50;90.41
46583;BME280;32309;48.858;8.252;2023-01-15T05:33:58;99141.59;;;7.47;90.80
46583;BME280;32309;48.858;8.252;2023-01-15T05:36:03;99133.84;;;7.47;91.23
46583;BME280;32309;48.858;8.252;2023-01-15T05:38:03;99124.56;;;7.44;90.60
46583;BME280;32309;48.858;8.252;2023-01-15T05:40:05;99129.88;;;7.41;90.51
46583;BME280;32309;48.858;8.252;2023-01-15T05:42:06;99133.59;;;7.37;90.73
46583;BME280;32309;48.858;8.252;2023-01-15T05:44:08;99131.13;;;7.36;91.03
46583;BME280;32309;48.858;8.252;2023-01-15T05:46:10;99140.88;;;7.30;91.33
46583;BME280;32309;48.858;8.252;2023-01-15T05:48:10;99154.50;;;7.32;92.28
46583;BME280;32309;48.858;8.252;2023-01-15T05:50:11;99148.38;;;7.21;90.87
46583;BME280;32309;48.858;8.252;2023-01-15T05:52:11;99143.00;;;7.24;90.98
46583;BME280;32309;48.858;8.252;2023-01-15T05:54:13;99137.03;;;7.23;90.99
46583;BME280;32309;48.858;8.252;2023-01-15T05:56:14;99133.16;;;7.16;90.08
46583;BME280;32309;48.858;8.252;2023-01-15T05:58:15;99141.38;;;7.08;90.45
46583;BME280;32309;48.858;8.252;2023-01-15T06:00:15;99144.97;;;7.06;89.96
46583;BME280;32309;48.858;8.252;2023-01-15T06:02:16;99142.78;;;6.99;89.80
46583;BME280;32309;48.858;8.252;2023-01-15T06:04:16;99144.25;;;7.04;89.68
46583;BME280;32309;48.858;8.252;2023-01-15T06:06:20;99147.81;;;7.01;89.70
46583;BME280;32309;48.858;8.252;2023-01-15T06:08:21;99163.66;;;6.95;89.20
46583;BME280;32309;48.858;8.252;2023-01-15T06:10:22;99164.41;;;6.97;89.27
46583;BME280;32309;48.858;8.252;2023-01-15T06:12:22;99174.69;;;6.97;89.67
46583;BME280;32309;48.858;8.252;2023-01-15T06:14:22;99185.06;;;6.95;89.98
46583;BME280;32309;48.858;8.252;2023-01-15T06:16:23;99199.81;;;6.93;89.87
46583;BME280;32309;48.858;8.252;2023-01-15T06:18:24;99201.63;;;6.91;90.06
46583;BME280;32309;48.858;8.252;2023-01-15T06:20:24;99203.59;;;6.88;89.89
46583;BME280;32309;48.858;8.252;2023-01-15T06:22:24;99200.53;;;6.81;89.44
46583;BME280;32309;48.858;8.252;2023-01-15T06:24:25;99204.03;;;6.80;89.94
46583;BME280;32309;48.858;8.252;2023-01-15T06:26:25;99207.44;;;6.80;89.95
46583;BME280;32309;48.858;8.252;2023-01-15T06:28:26;99200.91;;;6.75;90.14
46583;BME280;32309;48.858;8.252;2023-01-15T06:30:26;99226.47;;;6.78;90.44
46583;BME280;32309;48.858;8.252;2023-01-15T06:32:27;99238.16;;;6.69;90.27
46583;BME280;32309;48.858;8.252;2023-01-15T06:34:27;99233.00;;;6.69;90.09
46583;BME280;32309;48.858;8.252;2023-01-15T06:36:27;99254.41;;;6.70;90.94
46583;BME280;32309;48.858;8.252;2023-01-15T06:38:28;99251.09;;;6.68;90.30
46583;BME280;32309;48.858;8.252;2023-01-15T06:40:28;99254.13;;;6.60;91.05
46583;BME280;32309;48.858;8.252;2023-01-15T06:42:28;99253.84;;;6.64;91.64
46583;BME280;32309;48.858;8.252;2023-01-15T06:44:47;99259.00;;;6.64;91.24
46583;BME280;32309;48.858;8.252;2023-01-15T06:47:27;99269.72;;;6.57;90.67
46583;BME280;32309;48.858;8.252;2023-01-15T06:49:26;99267.16;;;6.57;91.78
46583;BME280;32309;48.858;8.252;2023-01-15T06:51:27;99279.22;;;6.56;90.98
46583;BME280;32309;48.858;8.252;2023-01-15T06:53:27;99286.09;;;6.56;91.62
46583;BME280;32309;48.858;8.252;2023-01-15T06:55:27;99294.81;;;6.53;91.51
46583;BME280;32309;48.858;8.252;2023-01-15T06:57:28;99291.50;;;6.51;91.94
46583;BME280;32309;48.858;8.252;2023-01-15T06:59:28;99289.94;;;6.48;92.49
46583;BME280;32309;48.858;8.252;2023-01-15T07:01:28;99297.47;;;6.52;92.96
46583;BME280;32309;48.858;8.252;2023-01-15T07:03:30;99287.34;;;6.48;92.96
46583;BME280;32309;48.858;8.252;2023-01-15T07:05:30;99283.03;;;6.49;92.45
46583;BME280;32309;48.858;8.252;2023-01-15T07:07:30;99297.56;;;6.50;92.39
46583;BME280;32309;48.858;8.252;2023-01-15T07:09:30;99316.69;;;6.46;92.35
46583;BME280;32309;48.858;8.252;2023-01-15T07:11:31;99324.50;;;6.44;91.91
46583;BME280;32309;48.858;8.252;2023-01-15T07:13:31;99320.59;;;6.37;91.89
46583;BME280;32309;48.858;8.252;2023-01-15T07:15:31;99312.84;;;6.37;92.11
46583;BME280;32309;48.858;8.252;2023-01-15T07:17:33;99309.56;;;6.35;91.79
46583;BME280;32309;48.858;8.252;2023-01-15T07:19:34;99316.59;;;6.31;91.90
46583;BME280;32309;48.858;8.252;2023-01-15T07:21:34;99315.63;;;6.34;91.60
46583;BME280;32309;48.858;8.252;2023-01-15T07:23:35;99322.56;;;6.32;90.86
46583;BME280;32309;48.858;8.252;2023-01-15T07:25:35;99325.25;;;6.30;90.36
46583;BME280;32309;48.858;8.252;2023-01-15T07:27:36;99321.66;;;6.33;91.10
46583;BME280;32309;48.858;8.252;2023-01-15T07:29:36;99332.38;;;6.25;89.79
46583;BME280;32309;48.858;8.252;2023-01-15T07:31:37;99334.03;;;6.26;89.63
46583;BME280;32309;48.858;8.252;2023-01-15T07:33:37;99348.66;;;6.26;90.19
46583;BME280;32309;48.858;8.252;2023-01-15T07:35:37;99365.25;;;6.20;89.76
46583;BME280;32309;48.858;8.252;2023-01-15T07:37:37;99377.38;;;6.18;90.10
46583;BME280;32309;48.858;8.252;2023-01-15T07:39:39;99366.25;;;6.18;89.89
46583;BME280;32309;48.858;8.252;2023-01-15T07:41:39;99369.84;;;6.15;90.11
46583;BME280;32309;48.858;8.252;2023-01-15T07:43:58;99382.75;;;6.13;90.36
46583;BME280;32309;48.858;8.252;2023-01-15T07:46:17;99393.22;;;6.10;90.75
46583;BME280;32309;48.858;8.252;2023-01-15T07:48:39;99396.63;;;6.11;90.42
46583;BME280;32309;48.858;8.252;2023-01-15T07:51:00;99400.25;;;6.07;89.51
46583;BME280;32309;48.858;8.252;2023-01-15T07:53:00;99406.16;;;6.09;90.63
46583;BME280;32309;48.858;8.252;2023-01-15T07:55:00;99398.03;;;6.01;89.16
46583;BME280;32309;48.858;8.252;2023-01-15T07:57:01;99398.78;;;6.03;89.90
46583;BME280;32309;48.858;8.252;2023-01-15T07:59:01;99402.19;;;6.03;90.43
46583;BME280;32309;48.858;8.252;2023-01-15T08:01:02;99399.34;;;6.08;90.90
46583;BME280;32309;48.858;8.252;2023-01-15T08:03:02;99402.03;;;6.06;90.23
46583;BME280;32309;48.858;8.252;2023-01-15T08:05:02;99404.75;;;6.03;89.28
46583;BME280;32309;48.858;8.252;2023-01-15T08:07:03;99402.41;;;5.98;89.25
46583;BME280;32309;48.858;8.252;2023-01-15T08:09:04;99406.75;;;5.98;90.21
46583;BME280;32309;48.858;8.252;2023-01-15T08:11:04;99409.34;;;5.96;89.92
46583;BME280;32309;48.858;8.252;2023-01-15T08:13:23;99419.59;;;5.98;89.14
46583;BME280;32309;48.858;8.252;2023-01-15T08:15:42;99429.09;;;5.96;90.08
46583;BME280;32309;48.858;8.252;2023-01-15T08:17:43;99443.78;;;5.94;90.27
46583;BME280;32309;48.858;8.252;2023-01-15T08:19:45;99448.09;;;5.93;90.31
46583;BME280;32309;48.858;8.252;2023-01-15T08:21:45;99446.41;;;5.92;90.54
46583;BME280;32309;48.858;8.252;2023-01-15T08:23:46;99443.03;;;5.92;89.92
46583;BME280;32309;48.858;8.252;2023-01-15T08:25:49;99452.31;;;5.94;91.25
46583;BME280;32309;48.858;8.252;2023-01-15T08:27:49;99449.06;;;5.91;91.20
46583;BME280;32309;48.858;8.252;2023-01-15T08:29:50;99450.66;;;5.93;90.89
46583;BME280;32309;48.858;8.252;2023-01-15T08:31:51;99460.34;;;5.88;89.58
46583;BME280;32309;48.858;8.252;2023-01-15T08:33:51;99452.72;;;5.87;89.32
46583;BME280;32309;48.858;8.252;2023-01-15T08:35:52;99460.59;;;5.83;90.20
46583;BME280;32309;48.858;8.252;2023-01-15T08:37:52;99467.53;;;5.81;90.02
46583;BME280;32309;48.858;8.252;2023-01-15T08:39:52;99461.41;;;5.84;89.95
46583;BME280;32309;48.858;8.252;2023-01-15T08:41:53;99470.81;;;5.85;91.20
46583;BME280;32309;48.858;8.252;2023-01-15T08:43:54;99464.38;;;5.76;90.55
46583;BME280;32309;48.858;8.252;2023-01-15T08:45:55;99462.97;;;5.71;90.49
46583;BME280;32309;48.858;8.252;2023-01-15T08:47:57;99468.84;;;5.73;90.47
46583;BME280;32309;48.858;8.252;2023-01-15T08:49:57;99473.53;;;5.64;90.12
46583;BME280;32309;48.858;8.252;2023-01-15T08:51:57;99482.31;;;5.60;90.22
46583;BME280;32309;48.858;8.252;2023-01-15T08:53:57;99490.19;;;5.57;89.58
46583;BME280;32309;48.858;8.252;2023-01-15T08:55:58;99492.88;;;5.54;90.57
46583;BME280;32309;48.858;8.252;2023-01-15T08:57:58;99499.69;;;5.55;90.44
46583;BME280;32309;48.858;8.252;2023-01-15T08:59:59;99502.44;;;5.52;90.91
46583;BME280;32309;48.858;8.252;2023-01-15T09:01:59;99503.31;;;5.51;89.56
46583;BME280;32309;48.858;8.252;2023-01-15T09:03:59;99506.97;;;5.47;89.95
46583;BME280;32309;48.858;8.252;2023-01-15T09:06:00;99517.59;;;5.39;89.10
46583;BME280;32309;48.858;8.252;2023-01-15T09:08:02;99507.16;;;5.42;89.92
46583;BME280;32309;48.858;8.252;2023-01-15T09:10:03;99526.00;;;5.43;89.52
46583;BME280;32309;48.858;8.252;2023-01-15T09:12:04;99531.16;;;5.43;89.30
46583;BME280;32309;48.858;8.252;2023-01-15T09:14:05;99527.97;;;5.38;88.61
46583;BME280;32309;48.858;8.252;2023-01-15T09:16:07;99534.00;;;5.37;89.13
46583;BME280;32309;48.858;8.252;2023-01-15T09:18:08;99560.69;;;5.34;89.24
46583;BME280;32309;48.858;8.252;2023-01-15T09:20:12;99548.72;;;5.33;90.37
46583;BME280;32309;48.858;8.252;2023-01-15T09:22:13;99544.72;;;5.27;90.11
46583;BME280;32309;48.858;8.252;2023-01-15T09:24:13;99556.66;;;5.28;89.89
46583;BME280;32309;48.858;8.252;2023-01-15T09:26:24;99552.34;;;5.29;90.19
46583;BME280;32309;48.858;8.252;2023-01-15T09:28:24;99555.00;;;5.27;89.87
46583;BME280;32309;48.858;8.252;2023-01-15T09:30:26;99574.66;;;5.28;90.91
46583;BME280;32309;48.858;8.252;2023-01-15T09:32:26;99570.94;;;5.34;91.71
46583;BME280;32309;48.858;8.252;2023-01-15T09:34:27;99580.19;;;5.38;91.31
46583;BME280;32309;48.858;8.252;2023-01-15T09:36:28;99568.47;;;5.32;90.20
46583;BME280;32309;48.858;8.252;2023-01-15T09:38:30;99570.94;;;5.34;90.35
46583;BME280;32309;48.858;8.252;2023-01-15T09:42:49;99588.94;;;5.34;90.72
46583;BME280;32309;48.858;8.252;2023-01-15T09:47:14;99605.25;;;5.33;90.96
46583;BME280;32309;48.858;8.252;2023-01-15T09:54:10;99627.28;;;5.20;91.08
46583;BME280;32309;48.858;8.252;2023-01-15T09:56:18;99631.78;;;5.14;90.32
46583;BME280;32309;48.858;8.252;2023-01-15T09:58:25;99625.13;;;5.10;89.91
46583;BME280;32309;48.858;8.252;2023-01-15T10:00:40;99625.44;;;5.04;89.64
46583;BME280;32309;48.858;8.252;2023-01-15T10:05:09;99637.97;;;4.91;88.85
46583;BME280;32309;48.858;8.252;2023-01-15T10:09:37;99651.72;;;4.70;87.76
46583;BME280;32309;48.858;8.252;2023-01-15T10:11:42;99660.63;;;4.62;88.10
46583;BME280;32309;48.858;8.252;2023-01-15T10:14:58;99661.31;;;4.45;88.07
46583;BME280;32309;48.858;8.252;2023-01-15T10:17:27;99674.16;;;4.45;89.71
46583;BME280;32309;48.858;8.252;2023-01-15T10:19:33;99670.69;;;4.46;90.14
46583;BME280;32309;48.858;8.252;2023-01-15T10:21:52;99672.41;;;4.46;88.97
46583;BME280;32309;48.858;8.252;2023-01-15T10:24:10;99680.09;;;4.46;89.15
46583;BME280;32309;48.858;8.252;2023-01-15T10:28:30;99684.41;;;4.45;88.63
46583;BME280;32309;48.858;8.252;2023-01-15T10:32:45;99688.53;;;4.29;89.34
46583;BME280;32309;48.858;8.252;2023-01-15T10:37:16;99701.34;;;4.29;88.62
46583;BME280;32309;48.858;8.252;2023-01-15T10:39:44;99698.31;;;4.19;89.61
46583;BME280;32309;48.858;8.252;2023-01-15T10:43:50;99708.41;;;4.24;89.79
46583;BME280;32309;48.858;8.252;2023-01-15T10:45:58;99708.41;;;4.24;89.82
46583;BME280;32309;48.858;8.252;2023-01-15T10:48:08;99710.00;;;4.26;89.80
46583;BME280;32309;48.858;8.252;2023-01-15T10:50:27;99707.63;;;4.22;89.73
46583;BME280;32309;48.858;8.252;2023-01-15T10:52:32;99717.09;;;4.20;89.67
46583;BME280;32309;48.858;8.252;2023-01-15T10:56:39;99701.31;;;4.08;90.03
46583;BME280;32309;48.858;8.252;2023-01-15T10:59:10;99709.72;;;4.12;90.52
46583;BME280;32309;48.858;8.252;2023-01-15T11:01:17;99712.09;;;4.16;90.77
46583;BME280;32309;48.858;8.252;2023-01-15T11:03:24;99706.81;;;4.20;89.97
46583;BME280;32309;48.858;8.252;2023-01-15T11:05:34;99708.81;;;4.13;89.68
46583;BME280;32309;48.858;8.252;2023-01-15T11:07:38;99697.88;;;4.08;89.64
46583;BME280;32309;48.858;8.252;2023-01-15T11:09:41;99704.69;;;4.09;89.78
46583;BME280;32309;48.858;8.252;2023-01-15T11:12:25;99699.41;;;4.13;90.37
46583;BME280;32309;48.858;8.252;2023-01-15T11:14:17;99684.75;;;4.15;90.45
46583;BME280;32309;48.858;8.252;2023-01-15T11:16:36;99677.84;;;4.18;90.08
46583;BME280;32309;48.858;8.252;2023-01-15T11:18:59;99678.50;;;4.23;89.93
46583;BME280;32309;48.858;8.252;2023-01-15T11:21:20;99680.22;;;4.22;90.28
46583;BME280;32309;48.858;8.252;2023-01-15T11:23:23;99675.06;;;4.24;90.26
46583;BME280;32309;48.858;8.252;2023-01-15T11:25:24;99673.44;;;4.21;89.41
46583;BME280;32309;48.858;8.252;2023-01-15T11:27:27;99671.63;;;4.23;89.18
46583;BME280;32309;48.858;8.252;2023-01-15T11:29:33;99677.47;;;4.27;89.00
46583;BME280;32309;48.858;8.252;2023-01-15T11:31:39;99683.41;;;4.29;89.10
46583;BME280;32309;48.858;8.252;2023-01-15T11:33:39;99678.50;;;4.23;88.77
46583;BME280;32309;48.858;8.252;2023-01-15T11:35:48;99682.59;;;4.27;88.90
46583;BME280;32309;48.858;8.252;2023-01-15T11:38:00;99683.44;;;4.27;89.00
46583;BME280;32309;48.858;8.252;2023-01-15T11:40:01;99673.47;;;4.20;87.99
46583;BME280;32309;48.858;8.252;2023-01-15T11:42:12;99686.84;;;4.28;88.96
46583;BME280;32309;48.858;8.252;2023-01-15T11:44:33;99698.00;;;4.27;87.90
46583;BME280;32309;48.858;8.252;2023-01-15T11:46:53;99700.63;;;4.25;88.02
46583;BME280;32309;48.858;8.252;2023-01-15T11:49:17;99698.81;;;4.27;88.16
46583;BME280;32309;48.858;8.252;2023-01-15T11:51:41;99696.31;;;4.26;87.65
46583;BME280;32309;48.858;8.252;2023-01-15T11:53:47;99686.72;;;4.31;88.06
46583;BME280;32309;48.858;8.252;2023-01-15T11:55:55;99683.97;;;4.36;87.41